createdAt,value
2018-01-14T00:01:24.168Z,18.12
2018-01-14T00:03:52.017Z,15.85
2018-01-14T00:06:19.860Z,17.05
2018-01-14T00:08:47.715Z,15.73
2018-01-14T00:11:15.551Z,14.32
2018-01-14T00:13:43.401Z,18.00
2018-01-14T00:16:11.244Z,16.27
2018-01-14T00:18:39.151Z,17.45
2018-01-14T00:21:07.007Z,18.92
2018-01-14T00:23:34.843Z,17.60
2018-01-14T00:26:02.709Z,17.87
2018-01-14T00:28:30.566Z,16.08
2018-01-14T00:30:58.445Z,12.00
2018-01-14T00:33:26.319Z,16.02
2018-01-14T00:35:54.168Z,17.08
2018-01-14T00:38:22.032Z,15.52
2018-01-14T00:40:49.908Z,16.25
2018-01-14T00:43:17.776Z,15.77
2018-01-14T00:45:45.630Z,16.87
2018-01-14T00:48:13.479Z,16.30
2018-01-14T00:50:41.320Z,17.45
2018-01-14T00:53:09.149Z,16.37
2018-01-14T00:55:36.997Z,17.25
2018-01-14T00:58:04.844Z,17.40
2018-01-14T01:00:32.726Z,18.10
2018-01-14T01:03:00.597Z,19.52
2018-01-14T01:05:28.469Z,17.73
2018-01-14T01:07:56.303Z,19.02
2018-01-14T01:10:24.146Z,16.77
2018-01-14T01:12:51.950Z,18.20
2018-01-14T01:15:19.823Z,17.52
2018-01-14T01:17:47.684Z,17.27
2018-01-14T01:20:15.524Z,15.13
2018-01-14T01:22:43.416Z,16.80
2018-01-14T01:25:11.284Z,17.33
2018-01-14T01:27:39.123Z,17.10
2018-01-14T01:30:06.983Z,17.12
2018-01-14T01:32:34.860Z,15.73
2018-01-14T01:35:02.715Z,16.58
2018-01-14T01:37:30.569Z,17.87
2018-01-14T01:39:58.403Z,16.08
2018-01-14T01:45:19.172Z,16.12
2018-01-14T01:47:47.040Z,16.33
2018-01-14T01:50:14.920Z,18.65
2018-01-14T01:52:42.771Z,18.10
2018-01-14T01:55:10.614Z,18.80
2018-01-14T01:57:38.465Z,18.80
2018-01-14T02:00:06.298Z,18.67
2018-01-14T02:02:34.132Z,18.55
2018-01-14T02:05:01.961Z,19.67
2018-01-14T02:07:29.827Z,18.30
2018-01-14T02:09:57.693Z,17.08
2018-01-14T02:12:25.531Z,17.40
2018-01-14T02:14:53.387Z,16.58
2018-01-14T02:17:21.257Z,18.65
2018-01-14T02:19:49.120Z,20.30
2018-01-14T02:22:17.067Z,20.40
2018-01-14T02:24:44.929Z,20.45
2018-01-14T02:27:12.776Z,18.58
2018-01-14T02:29:40.691Z,22.10
2018-01-14T02:32:08.605Z,18.02
2018-01-14T02:34:36.487Z,19.62
2018-01-14T02:37:04.330Z,18.35
2018-01-14T02:39:32.199Z,19.17
2018-01-14T02:42:00.065Z,21.15
2018-01-14T02:44:27.932Z,16.25
2018-01-14T02:46:55.804Z,17.30
2018-01-14T02:49:23.679Z,17.58
2018-01-14T02:51:51.525Z,18.00
2018-01-14T02:54:19.373Z,18.98
2018-01-14T02:56:47.214Z,17.23
2018-01-14T02:59:15.059Z,15.88
2018-01-14T03:01:45.369Z,18.42
2018-01-14T03:04:13.807Z,17.85
2018-01-14T03:06:41.648Z,17.75
2018-01-14T03:09:09.496Z,20.60
2018-01-14T03:11:37.379Z,18.67
2018-01-14T03:14:05.230Z,18.60
2018-01-14T03:16:33.108Z,18.25
2018-01-14T03:19:00.964Z,17.52
2018-01-14T03:21:28.808Z,19.90
2018-01-14T03:23:56.715Z,17.62
2018-01-14T03:26:24.552Z,18.23
2018-01-14T03:28:52.395Z,19.30
2018-01-14T03:31:20.255Z,18.10
2018-01-14T03:33:48.079Z,18.10
2018-01-14T03:36:15.934Z,17.58
2018-01-14T03:38:43.800Z,19.42
2018-01-14T03:41:11.646Z,18.80
2018-01-14T03:43:39.487Z,18.05
2018-01-14T03:46:07.360Z,19.12
2018-01-14T03:48:35.203Z,18.25
2018-01-14T03:51:03.052Z,20.17
2018-01-14T03:53:30.876Z,17.62
2018-01-14T03:55:58.739Z,17.52
2018-01-14T03:58:26.555Z,20.65
2018-01-14T04:00:54.412Z,17.90
2018-01-14T04:03:22.257Z,18.30
2018-01-14T04:05:50.079Z,19.00
2018-01-14T04:08:17.905Z,19.77
2018-01-14T04:10:45.761Z,18.85
2018-01-14T04:13:13.580Z,18.35
2018-01-14T04:15:41.444Z,19.23
2018-01-14T04:18:09.326Z,19.10
2018-01-14T04:20:37.192Z,18.02
2018-01-14T04:23:05.028Z,20.20
2018-01-14T04:25:32.849Z,21.75
2018-01-14T04:28:00.691Z,21.17
2018-01-14T04:30:28.556Z,19.73
2018-01-14T04:32:56.427Z,19.92
2018-01-14T04:35:24.244Z,18.45
2018-01-14T04:37:52.115Z,20.70
2018-01-14T04:40:19.977Z,20.83
2018-01-14T04:42:47.859Z,22.55
2018-01-14T04:45:15.716Z,21.92
2018-01-14T04:47:43.571Z,19.90
2018-01-14T04:50:11.454Z,21.48
2018-01-14T04:52:39.280Z,21.02
2018-01-14T04:55:07.136Z,21.23
2018-01-14T04:57:34.978Z,21.83
2018-01-14T05:00:02.824Z,21.58
2018-01-14T05:02:30.645Z,21.67
2018-01-14T05:04:58.515Z,20.85
2018-01-14T05:07:26.359Z,19.67
2018-01-14T05:09:54.204Z,21.58
2018-01-14T05:12:22.248Z,21.40
2018-01-14T05:14:50.107Z,22.77
2018-01-14T05:17:17.962Z,22.67
2018-01-14T05:19:45.819Z,22.80
2018-01-14T05:22:13.672Z,22.67
2018-01-14T05:24:41.566Z,22.67
2018-01-14T05:27:09.432Z,20.02
2018-01-14T05:29:37.292Z,22.15
2018-01-14T05:32:05.131Z,24.37
2018-01-14T05:34:32.992Z,19.20
2018-01-14T05:37:00.815Z,23.45
2018-01-14T05:39:28.649Z,19.90
2018-01-14T05:41:56.496Z,18.23
2018-01-14T05:44:24.332Z,25.27
2018-01-14T05:46:52.186Z,21.67
2018-01-14T05:49:20.031Z,20.40
2018-01-14T05:51:47.859Z,21.52
2018-01-14T05:54:15.698Z,20.42
2018-01-14T05:56:43.524Z,20.45
2018-01-14T05:59:11.413Z,21.12
2018-01-14T06:01:39.259Z,21.90
2018-01-14T06:04:07.131Z,22.05
2018-01-14T06:06:34.960Z,20.37
2018-01-14T06:09:02.828Z,20.75
2018-01-14T06:11:30.695Z,19.42
2018-01-14T06:13:58.572Z,19.95
2018-01-14T06:16:26.388Z,19.67
2018-01-14T06:18:54.248Z,22.05
2018-01-14T06:21:22.084Z,21.52
2018-01-14T06:23:49.924Z,21.30
2018-01-14T06:26:17.803Z,19.08
2018-01-14T06:28:45.670Z,23.80
2018-01-14T06:31:13.496Z,22.50
2018-01-14T06:33:41.311Z,26.42
2018-01-14T06:36:09.136Z,23.08
2018-01-14T06:38:36.971Z,23.17
2018-01-14T06:41:04.805Z,24.83
2018-01-14T06:43:32.672Z,23.40
2018-01-14T06:46:00.512Z,26.52
2018-01-14T06:48:28.363Z,25.90
2018-01-14T06:50:56.232Z,28.40
2018-01-14T06:53:24.085Z,25.70
2018-01-14T06:55:51.935Z,22.92
2018-01-14T06:58:19.781Z,24.30
2018-01-14T07:00:47.617Z,25.27
2018-01-14T07:03:15.459Z,25.42
2018-01-14T07:05:43.296Z,26.52
2018-01-14T07:08:11.141Z,26.17
2018-01-14T07:10:38.994Z,23.65
2018-01-14T07:13:06.840Z,27.73
2018-01-14T07:15:34.683Z,22.73
2018-01-14T07:18:02.515Z,27.48
2018-01-14T07:20:30.352Z,24.67
2018-01-14T07:22:58.179Z,29.77
2018-01-14T07:25:26.008Z,28.23
2018-01-14T07:28:00.176Z,28.33
2018-01-14T07:30:29.031Z,25.40
2018-01-14T07:32:56.936Z,27.42
2018-01-14T07:35:24.780Z,22.10
2018-01-14T07:37:52.657Z,28.10
2018-01-14T07:40:20.550Z,26.50
2018-01-14T07:42:48.401Z,26.83
2018-01-14T07:45:16.256Z,29.35
2018-01-14T07:47:44.116Z,25.98
2018-01-14T07:50:11.985Z,27.42
2018-01-14T07:52:39.852Z,27.50
2018-01-14T07:55:07.680Z,28.05
2018-01-14T07:57:35.532Z,26.15
2018-01-14T08:00:03.388Z,27.45
2018-01-14T08:02:31.255Z,25.52
2018-01-14T08:04:59.109Z,24.02
2018-01-14T08:07:27.805Z,25.20
2018-01-14T08:09:55.624Z,22.58
2018-01-14T08:12:23.459Z,27.75
2018-01-14T08:14:51.302Z,28.55
2018-01-14T08:17:26.517Z,28.60
2018-01-14T08:19:54.852Z,24.73
2018-01-14T08:22:22.789Z,25.90
2018-01-14T08:24:50.680Z,25.08
2018-01-14T08:27:18.517Z,27.17
2018-01-14T08:29:46.385Z,29.08
2018-01-14T08:32:14.231Z,26.30
2018-01-14T08:34:42.081Z,26.15
2018-01-14T08:37:09.987Z,28.02
2018-01-14T08:39:37.853Z,26.58
2018-01-14T08:42:05.740Z,29.30
2018-01-14T08:44:33.560Z,25.37
2018-01-14T08:47:01.494Z,27.08
2018-01-14T08:49:29.439Z,24.17
2018-01-14T08:51:57.303Z,27.67
2018-01-14T08:54:25.125Z,26.27
2018-01-14T08:56:52.952Z,23.83
2018-01-14T08:59:20.788Z,25.58
2018-01-14T09:01:49.577Z,26.05
2018-01-14T09:04:17.424Z,26.20
2018-01-14T09:06:45.294Z,24.63
2018-01-14T09:09:13.157Z,25.90
2018-01-14T09:11:40.979Z,24.50
2018-01-14T09:14:08.820Z,25.42
2018-01-14T09:16:36.680Z,24.80
2018-01-14T09:19:04.556Z,24.15
2018-01-14T09:21:32.388Z,27.05
2018-01-14T09:26:55.216Z,25.73
2018-01-14T09:29:23.097Z,24.48
2018-01-14T09:31:51.526Z,25.08
2018-01-14T09:34:19.362Z,25.25
2018-01-14T09:36:47.238Z,23.77
2018-01-14T09:39:15.068Z,23.17
2018-01-14T09:41:43.019Z,25.70
2018-01-14T09:44:10.884Z,23.33
2018-01-14T09:46:38.754Z,22.90
2018-01-14T09:49:06.621Z,23.25
2018-01-14T09:51:34.460Z,25.02
2018-01-14T09:54:02.324Z,27.05
2018-01-14T09:56:30.172Z,24.08
2018-01-14T09:58:58.040Z,24.63
2018-01-14T10:01:25.907Z,24.80
2018-01-14T10:03:53.819Z,24.10
2018-01-14T10:06:21.624Z,25.48
2018-01-14T10:08:49.589Z,24.05
2018-01-14T10:11:17.403Z,25.30
2018-01-14T10:13:45.238Z,22.58
2018-01-14T10:16:13.084Z,22.80
2018-01-14T10:18:41.008Z,24.83
2018-01-14T10:21:10.412Z,21.75
2018-01-14T10:23:39.052Z,25.08
2018-01-14T10:26:06.895Z,25.50
2018-01-14T10:28:34.727Z,26.12
2018-01-14T10:31:02.572Z,24.80
2018-01-14T10:33:30.416Z,24.52
2018-01-14T10:35:58.268Z,24.60
2018-01-14T10:38:26.095Z,26.67
2018-01-14T10:40:53.917Z,23.33
2018-01-14T10:43:22.558Z,24.90
2018-01-14T10:45:50.416Z,24.08
2018-01-14T10:48:18.238Z,26.67
2018-01-14T10:50:46.062Z,25.10
2018-01-14T10:53:13.864Z,23.55
2018-01-14T10:55:41.695Z,24.00
2018-01-14T10:58:09.491Z,26.08
2018-01-14T11:00:43.378Z,25.02
2018-01-14T11:03:11.296Z,25.85
2018-01-14T11:05:39.192Z,25.33
2018-01-14T11:08:07.022Z,23.05
2018-01-14T11:10:34.883Z,24.17
2018-01-14T11:13:02.747Z,24.40
2018-01-14T11:15:30.598Z,24.55
2018-01-14T11:17:58.442Z,23.33
2018-01-14T11:20:26.301Z,23.70
2018-01-14T11:22:54.136Z,26.48
2018-01-14T11:25:21.974Z,23.45
2018-01-14T11:27:49.813Z,25.88
2018-01-14T11:30:17.664Z,24.42
2018-01-14T11:32:45.488Z,24.37
2018-01-14T11:35:13.297Z,25.77
2018-01-14T11:37:41.123Z,25.83
2018-01-14T11:40:08.956Z,25.80
2018-01-14T11:42:36.798Z,26.77
2018-01-14T11:45:04.658Z,24.95
2018-01-14T11:47:32.508Z,25.20
2018-01-14T11:50:00.341Z,24.90
2018-01-14T11:52:28.172Z,27.55
2018-01-14T11:54:56.004Z,26.92
2018-01-14T11:57:23.860Z,26.65
2018-01-14T11:59:51.691Z,27.35
2018-01-14T12:02:19.539Z,26.48
2018-01-14T12:04:47.385Z,25.15
2018-01-14T12:07:15.231Z,27.08
2018-01-14T12:09:43.027Z,27.23
2018-01-14T12:12:10.843Z,25.85
2018-01-14T12:14:38.948Z,25.27
2018-01-14T12:17:06.804Z,26.37
2018-01-14T12:19:34.632Z,25.98
2018-01-14T12:22:02.492Z,26.58
2018-01-14T12:24:30.432Z,24.98
2018-01-14T12:26:58.391Z,28.60
2018-01-14T12:29:26.249Z,27.08
2018-01-14T12:31:54.136Z,25.83
2018-01-14T12:34:37.068Z,26.80
2018-01-14T12:37:04.915Z,27.27
2018-01-14T12:39:32.793Z,26.23
2018-01-14T12:42:00.633Z,26.15
2018-01-14T12:44:28.845Z,25.27
2018-01-14T12:46:56.811Z,25.48
2018-01-14T12:49:24.640Z,27.67
2018-01-14T12:51:52.439Z,27.60
2018-01-14T12:54:21.373Z,25.25
2018-01-14T12:56:49.472Z,23.05
2018-01-14T12:59:17.336Z,26.37
2018-01-14T13:01:45.757Z,27.58
2018-01-14T13:04:13.576Z,27.95
2018-01-14T13:06:41.388Z,29.12
2018-01-14T13:09:09.267Z,27.62
2018-01-14T13:11:37.095Z,25.98
2018-01-14T13:14:04.951Z,25.15
2018-01-14T13:16:32.796Z,27.23
2018-01-14T13:19:00.651Z,25.25
2018-01-14T13:21:28.483Z,25.52
2018-01-14T13:23:56.280Z,28.75
2018-01-14T13:26:24.104Z,28.38
2018-01-14T13:28:51.951Z,26.65
2018-01-14T13:31:19.796Z,27.00
2018-01-14T13:33:47.648Z,26.08
2018-01-14T13:36:17.905Z,27.23
2018-01-14T13:38:45.718Z,24.45
2018-01-14T13:41:13.551Z,28.23
2018-01-14T13:43:41.359Z,27.65
2018-01-14T13:46:09.181Z,27.00
2018-01-14T13:48:37.003Z,28.75
2018-01-14T13:51:04.860Z,24.77
2018-01-14T13:53:32.710Z,26.40
2018-01-14T13:56:00.556Z,26.60
2018-01-14T13:58:28.392Z,26.02
2018-01-14T14:00:56.233Z,27.67
2018-01-14T14:03:24.067Z,28.30
2018-01-14T14:05:51.901Z,30.05
2018-01-14T14:08:19.733Z,27.27
2018-01-14T14:10:47.549Z,28.05
2018-01-14T14:13:15.372Z,27.77
2018-01-14T14:15:43.314Z,29.42
2018-01-14T14:18:11.167Z,26.42
2018-01-14T14:20:39.065Z,29.65
2018-01-14T14:23:06.903Z,26.02
2018-01-14T14:25:34.783Z,27.87
2018-01-14T14:28:02.622Z,27.85
2018-01-14T14:30:30.440Z,27.85
2018-01-14T14:32:58.390Z,30.08
2018-01-14T14:35:26.220Z,27.30
2018-01-14T14:37:54.064Z,25.45
2018-01-14T14:40:21.880Z,28.23
2018-01-14T14:42:49.741Z,27.25
2018-01-14T14:45:17.580Z,27.55
2018-01-14T14:47:45.435Z,27.85
2018-01-14T14:50:13.296Z,29.10
2018-01-14T14:52:41.160Z,28.77
2018-01-14T14:55:09.095Z,29.00
2018-01-14T14:57:36.938Z,30.52
2018-01-14T15:00:04.861Z,29.37
2018-01-14T15:02:32.695Z,29.87
2018-01-14T15:05:00.507Z,28.25
2018-01-14T15:07:28.349Z,30.10
2018-01-14T15:09:56.152Z,28.60
2018-01-14T15:12:24.017Z,28.75
2018-01-14T15:14:51.968Z,29.00
2018-01-14T15:17:19.790Z,27.90
2018-01-14T15:19:47.599Z,28.17
2018-01-14T15:22:17.587Z,31.15
2018-01-14T15:24:45.425Z,29.55
2018-01-14T15:27:13.232Z,27.60
2018-01-14T15:29:42.391Z,29.83
2018-01-14T15:32:10.602Z,30.95
2018-01-14T15:34:38.427Z,26.70
2018-01-14T15:37:06.324Z,30.37
2018-01-14T15:39:34.168Z,28.42
2018-01-14T15:42:02.012Z,27.62
2018-01-14T15:44:29.840Z,27.35
2018-01-14T15:46:57.689Z,28.15
2018-01-14T15:49:25.503Z,30.17
2018-01-14T15:51:53.340Z,27.05
2018-01-14T15:54:21.164Z,25.30
2018-01-14T15:56:48.976Z,27.37
2018-01-14T15:59:16.825Z,26.80
2018-01-14T16:01:44.644Z,26.00
2018-01-14T16:04:12.481Z,26.83
2018-01-14T16:06:40.308Z,27.95
2018-01-14T16:09:08.151Z,29.67
2018-01-14T16:11:35.979Z,28.77
2018-01-14T16:14:03.830Z,25.52
2018-01-14T16:16:31.650Z,27.60
2018-01-14T16:18:59.677Z,25.85
2018-01-14T16:21:27.513Z,25.05
2018-01-14T16:23:55.452Z,28.38
2018-01-14T16:26:23.339Z,27.15
2018-01-14T16:28:51.219Z,27.45
2018-01-14T16:31:19.038Z,26.92
2018-01-14T16:33:46.901Z,23.87
2018-01-14T16:36:14.733Z,27.87
2018-01-14T16:38:42.572Z,25.50
2018-01-14T16:41:10.404Z,27.17
2018-01-14T16:43:38.220Z,27.33
2018-01-14T16:46:06.039Z,25.90
2018-01-14T16:48:33.895Z,26.95
2018-01-14T16:51:01.735Z,27.35
2018-01-14T16:53:29.569Z,27.02
2018-01-14T16:55:57.391Z,25.58
2018-01-14T16:58:25.240Z,24.73
2018-01-14T17:00:53.062Z,26.60
2018-01-14T17:03:20.887Z,27.02
2018-01-14T17:05:48.704Z,28.73
2018-01-14T17:08:16.574Z,27.92
2018-01-14T17:10:44.428Z,30.90
2018-01-14T17:13:12.248Z,27.25
2018-01-14T17:15:40.076Z,28.55
2018-01-14T17:18:07.892Z,29.20
2018-01-14T17:20:35.757Z,29.15
2018-01-14T17:23:03.584Z,27.73
2018-01-14T17:25:31.415Z,25.73
2018-01-14T17:27:59.247Z,26.35
2018-01-14T17:30:27.080Z,26.73
2018-01-14T17:32:54.912Z,23.87
2018-01-14T17:35:22.741Z,28.45
2018-01-14T17:37:50.551Z,29.33
2018-01-14T17:40:18.371Z,26.45
2018-01-14T17:42:46.301Z,27.15
2018-01-14T17:45:14.140Z,24.85
2018-01-14T17:47:42.006Z,25.73
2018-01-14T17:50:09.842Z,27.77
2018-01-14T17:52:37.699Z,29.10
2018-01-14T17:55:05.564Z,26.62
2018-01-14T17:57:33.400Z,25.37
2018-01-14T18:00:01.297Z,24.63
2018-01-14T18:02:29.163Z,27.15
2018-01-14T18:04:57.044Z,26.98
2018-01-14T18:07:24.913Z,26.70
2018-01-14T18:09:52.764Z,27.83
2018-01-14T18:12:20.630Z,27.13
2018-01-14T18:14:48.505Z,28.65
2018-01-14T18:17:22.508Z,26.80
2018-01-14T18:19:50.372Z,23.33
2018-01-14T18:22:18.231Z,28.42
2018-01-14T18:24:46.067Z,25.00
2018-01-14T18:27:13.923Z,25.10
2018-01-14T18:29:41.845Z,25.02
2018-01-14T18:32:09.689Z,30.25
2018-01-14T18:34:37.614Z,30.42
2018-01-14T18:37:05.464Z,27.45
2018-01-14T18:39:33.308Z,23.25
2018-01-14T18:42:01.193Z,27.85
2018-01-14T18:44:29.044Z,29.08
2018-01-14T18:46:56.927Z,29.55
2018-01-14T18:49:24.751Z,26.27
2018-01-14T18:51:52.597Z,25.02
2018-01-14T18:54:20.860Z,25.25
2018-01-14T18:56:48.739Z,27.77
2018-01-14T18:59:16.564Z,27.02
2018-01-14T19:01:44.392Z,29.02
2018-01-14T19:04:12.227Z,27.77
2018-01-14T19:06:40.056Z,27.58
2018-01-14T19:09:07.883Z,29.65
2018-01-14T19:11:35.719Z,28.50
2018-01-14T19:14:03.544Z,26.23
2018-01-14T19:16:31.369Z,29.98
2018-01-14T19:18:59.255Z,29.23
2018-01-14T19:21:27.100Z,26.58
2018-01-14T19:23:55.732Z,28.17
2018-01-14T19:26:25.133Z,29.37
2018-01-14T19:28:53.065Z,24.87
2018-01-14T19:31:20.908Z,27.33
2018-01-14T19:33:48.743Z,27.50
2018-01-14T19:36:16.576Z,27.20
2018-01-14T19:38:44.412Z,27.17
2018-01-14T19:41:12.264Z,30.80
2018-01-14T19:43:40.091Z,26.60
2018-01-14T19:46:07.919Z,28.90
2018-01-14T19:48:35.783Z,25.58
2018-01-14T19:51:03.625Z,28.45
2018-01-14T19:53:31.447Z,26.10
2018-01-14T19:55:59.271Z,26.52
2018-01-14T19:58:27.133Z,26.62
2018-01-14T20:00:54.944Z,28.62
2018-01-14T20:03:22.771Z,21.85
2018-01-14T20:05:50.591Z,26.73
2018-01-14T20:08:18.428Z,26.50
2018-01-14T20:10:46.252Z,26.80
2018-01-14T20:13:14.085Z,26.58
2018-01-14T20:15:41.893Z,28.10
2018-01-14T20:18:09.726Z,31.27
2018-01-14T20:20:37.567Z,28.90
2018-01-14T20:23:05.422Z,25.92
2018-01-14T20:25:33.248Z,27.90
2018-01-14T20:28:01.078Z,27.62
2018-01-14T20:30:28.920Z,27.60
2018-01-14T20:32:56.756Z,28.80
2018-01-14T20:35:24.609Z,29.12
2018-01-14T20:37:52.453Z,27.08
2018-01-14T20:40:20.285Z,28.55
2018-01-14T20:42:48.131Z,30.50
2018-01-14T20:45:15.980Z,30.37
2018-01-14T20:47:43.859Z,28.87
2018-01-14T20:50:11.666Z,30.75
2018-01-14T20:52:39.522Z,29.50
2018-01-14T20:55:07.377Z,28.83
2018-01-14T20:57:35.214Z,30.00
2018-01-14T21:00:03.308Z,29.17
2018-01-14T21:02:31.156Z,30.05
2018-01-14T21:04:58.980Z,29.98
2018-01-14T21:07:26.816Z,26.65
2018-01-14T21:09:54.652Z,28.48
2018-01-14T21:12:22.500Z,27.87
2018-01-14T21:14:50.330Z,28.10
2018-01-14T21:17:18.148Z,28.15
2018-01-14T21:19:45.979Z,28.50
2018-01-14T21:22:13.818Z,28.87
2018-01-14T21:24:41.657Z,31.10
2018-01-14T21:27:10.561Z,29.17
2018-01-14T21:29:38.395Z,26.45
2018-01-14T21:32:06.223Z,28.73
2018-01-14T21:34:34.089Z,30.83
2018-01-14T21:37:01.961Z,29.65
2018-01-14T21:39:29.839Z,29.65
2018-01-14T21:41:57.795Z,29.65
2018-01-14T21:44:25.708Z,28.62
2018-01-14T21:46:53.681Z,28.00
2018-01-14T21:49:21.544Z,26.05
2018-01-14T21:51:49.414Z,28.17
2018-01-14T21:54:17.215Z,31.02
2018-01-14T21:56:45.049Z,27.60
2018-01-14T21:59:12.892Z,30.50
2018-01-14T22:01:40.716Z,30.40
2018-01-14T22:04:08.524Z,28.52
2018-01-14T22:06:36.375Z,27.15
2018-01-14T22:09:04.212Z,28.92
2018-01-14T22:11:32.062Z,28.30
2018-01-14T22:13:59.901Z,28.80
2018-01-14T22:16:27.730Z,28.33
2018-01-14T22:18:55.556Z,29.45
2018-01-14T22:21:23.405Z,31.08
2018-01-14T22:23:51.230Z,27.65
2018-01-14T22:26:19.071Z,31.23
2018-01-14T22:28:46.943Z,30.98
2018-01-14T22:31:14.793Z,24.00
2018-01-14T22:33:42.680Z,27.98
2018-01-14T22:36:11.106Z,29.70
2018-01-14T22:38:38.915Z,28.05
2018-01-14T22:41:06.777Z,31.35
2018-01-14T22:43:34.645Z,25.10
2018-01-14T22:46:02.487Z,28.45
2018-01-14T22:48:30.323Z,27.85
2018-01-14T22:50:58.128Z,30.48
2018-01-14T22:53:25.978Z,31.40
2018-01-14T22:55:53.792Z,33.03
2018-01-14T22:58:21.645Z,30.45
2018-01-14T23:00:49.464Z,30.73
2018-01-14T23:03:17.319Z,32.92
2018-01-14T23:05:45.149Z,29.98
2018-01-14T23:08:12.983Z,32.65
2018-01-14T23:10:40.828Z,24.95
2018-01-14T23:13:08.687Z,29.20
2018-01-14T23:15:36.509Z,29.77
2018-01-14T23:18:04.358Z,28.90
2018-01-14T23:20:32.180Z,31.12
2018-01-14T23:23:00.029Z,31.85
2018-01-14T23:25:27.828Z,33.15
2018-01-14T23:27:55.657Z,29.75
2018-01-14T23:30:23.468Z,29.40
2018-01-14T23:32:51.292Z,30.12
2018-01-14T23:35:19.144Z,30.90
2018-01-14T23:37:46.948Z,33.17
2018-01-14T23:40:14.797Z,30.75
2018-01-14T23:42:42.665Z,30.10
2018-01-14T23:45:10.495Z,32.65
2018-01-14T23:47:38.324Z,30.88
2018-01-14T23:50:06.206Z,30.17
2018-01-14T23:52:34.088Z,31.67
2018-01-14T23:55:01.922Z,30.90
2018-01-14T23:57:29.760Z,32.88
2018-01-14T23:59:57.590Z,33.15
